Flight Track Log - Related Links

Times and Time Zones

All times are in EDT time to prevent confusion due to time zone crossing. See the RPA3161 flight status page for this flight to view local times or setup timezone preferences in your user account.

Time Position Orientation Groundspeed Altitude Reporting Facility
EDT Latitude Longitude Course Direction KTS MPH feet Rate Location/Type
Wed 12:25:00 PM 44.1842 -73.2560 195° South  Level FlightAware Approximate
Wed 12:25:52 PM 44.3069 -73.1769 198° South 261 300 7,900  Level Boston Center
Wed 12:26:00 PM 44.0895 -73.2915 195° South  Level FlightAware Approximate
Wed 12:26:52 PM 44.2358 -73.2050 196° South 261 300 10,800  Level Boston Center
Wed 12:27:00 PM 43.9942 -73.3242 194° South  Level FlightAware Approximate
Wed 12:27:52 PM 44.1481 -73.2414 197° South 291 335 13,500  Level Boston Center
Wed 12:28:00 PM 43.8990 -73.3567 195° South  Level FlightAware Approximate
Wed 12:28:52 PM 44.0625 -73.2781 197° South 310 357 15,700  Level Boston Center
Wed 12:29:00 PM 43.8043 -73.3923 195° South  Level FlightAware Approximate
Wed 12:29:52 PM 43.9747 -73.3142 196° South 322 371 18,200  Level Boston Center
Wed 12:30:00 PM 43.7096 -73.4277 195° South  Level FlightAware Approximate
Wed 12:30:52 PM 43.8869 -73.3503 197° South 329 379 20,300  Level Boston Center
Wed 12:31:00 PM 43.6155 -73.4657 198° South  Level FlightAware Approximate
Wed 12:31:52 PM 43.7947 -73.3864 196° South 334 384 22,000  Level Boston Center
Wed 12:32:52 PM 43.7008 -73.4250 197° South 348 400 23,800 1,000 Climbing Boston Center
Wed 12:33:52 PM 43.6044 -73.4608 195° South 355 409 24,000 100 Climbing Boston Center
Wed 12:34:52 PM 43.5083 -73.4992 196° South 360 414 24,000  Level Boston Center
Wed 12:35:52 PM 43.4122 -73.5375 196° South 360 414 24,000  Level Boston Center
Wed 12:36:52 PM 43.3158 -73.5758 196° South 360 414 24,000  Level Boston Center
Wed 12:37:52 PM 43.2175 -73.6167 197° South 365 420 24,000  Level Boston Center
Wed 12:38:52 PM 43.1297 -73.6519 196° South 365 420 24,000  Level Boston Center
Wed 12:39:52 PM 43.0333 -73.6928 197° South 365 420 24,000  Level Boston Center
Wed 12:40:52 PM 42.9369 -73.7333 197° South 365 420 24,000  Level Boston Center
Wed 12:41:52 PM 42.8386 -73.7708 196° South 365 420 24,000  Level Boston Center
Wed 12:43:04 PM 42.7383 -73.8028 193° South 365 420 24,000  Level Boston Center
Wed 12:44:04 PM 42.6069 -73.7883 175° South 375 432 24,000  Level Boston Center
Wed 12:45:04 PM 42.4969 -73.7692 173° South 375 432 24,000  Level Boston Center
Wed 12:46:04 PM 42.3908 -73.7528 173° South 380 437 24,000  Level Boston Center
Wed 12:47:04 PM 42.3056 -73.7400 174° South 386 444 24,000  Level Boston Center
Wed 12:48:04 PM 42.1764 -73.7203 174° South 386 444 24,000  Level Boston Center
Wed 12:49:04 PM 42.0700 -73.7322 185° South 386 444 24,000  Level Boston Center
Wed 12:50:04 PM 41.9631 -73.7914 202° Southwest 394 453 24,000  Level Boston Center
Wed 12:51:04 PM 41.8539 -73.8503 202° Southwest 407 468 24,000  Level Boston Center
Wed 12:52:04 PM 41.7617 -73.8983 201° Southwest 407 468 24,000  Level Boston Center
Wed 12:53:04 PM 41.6544 -73.9544 201° Southwest 413 475 24,000  Level Boston Center
Wed 12:54:41 PM 41.4869 -74.0417 201° Southwest 412 474 24,000  Level New York Center
Wed 12:55:39 PM 41.3772 -74.0972 201° Southwest 412 474 24,000  Level New York Center
Wed 12:56:40 PM 41.2692 -74.1553 202° Southwest 417 480 24,000  Level New York Center
Wed 12:57:41 PM 41.1617 -74.2078 200° South 417 480 24,000  Level New York Center
Wed 12:58:41 PM 41.0517 -74.2628 201° Southwest 417 480 24,000  Level New York Center
Wed 12:59:39 PM 40.9458 -74.3178 201° Southwest 417 480 24,000  Level New York Center
Wed 01:00:39 PM 40.8378 -74.3750 202° Southwest 417 480 24,000  Level New York Center
Wed 01:01:40 PM 40.7497 -74.4636 217° Southwest 408 470 24,000  Level New York Center
Wed 01:02:40 PM 40.6814 -74.5831 233° Southwest 402 463 24,000  Level New York Center
Wed 01:03:39 PM 40.6108 -74.6967 231° Southwest 407 468 24,000  Level New York Center
Wed 01:04:39 PM 40.5383 -74.8072 229° Southwest 407 468 24,000  Level New York Center
Wed 01:05:39 PM 40.4617 -74.9144 227° Southwest 412 474 24,000  Level New York Center
Wed 01:06:41 PM 40.3869 -75.0244 228° Southwest 412 474 24,000 -252 Level New York Center
Wed 01:07:38 PM 40.3103 -75.1286 226° Southwest 407 468 23,500 -915 Descending New York Center
Wed 01:08:39 PM 40.2353 -75.2353 227° Southwest 401 461 22,200 -744 Descending New York Center
Wed 01:09:39 PM 40.1650 -75.3342 227° Southwest 396 456 22,000 -99 Descending New York Center
Wed 01:10:40 PM 40.0986 -75.4275 227° Southwest 376 433 22,000  Level New York Center
Wed 01:11:41 PM 40.0325 -75.5178 226° Southwest 362 417 22,000  Level New York Center
Wed 01:12:39 PM 39.9683 -75.6083 227° Southwest 357 411 22,000  Level New York Center
Wed 01:13:39 PM 39.9019 -75.7067 229° Southwest 357 411 22,000 -198 Level New York Center
Wed 01:14:40 PM 39.8406 -75.8214 235° Southwest 362 417 21,600 -645 Descending New York Center
Wed 01:15:40 PM 39.7883 -75.9256 237° Southwest 357 411 20,700 -893 Descending New York Center
Wed 01:16:41 PM 39.7356 -76.0297 237° Southwest 357 411 19,800 -843 Descending New York Center
Wed 01:17:41 PM 39.6814 -76.1256 234° Southwest 347 399 19,000 -864 Descending New York Center
Wed 01:18:39 PM 39.6308 -76.2242 236° Southwest 340 391 18,100 -1,748 Descending New York Center
Wed 01:19:48 PM 39.5667 -76.3167 228° Southwest 322 371 15,300 -2,585 Descending Potomac TRACON
Wed 01:20:42 PM 39.5000 -76.3833 218° Southwest 312 359 12,800 -1,737 Descending Potomac TRACON
Wed 01:21:42 PM 39.4167 -76.4500 212° Southwest 291 335 12,000 -397 Descending Potomac TRACON
Wed 01:22:43 PM 39.3500 -76.5000 210° Southwest 295 339 12,000 -248 Level Potomac TRACON
Wed 01:23:43 PM 39.2833 -76.5667 218° Southwest 293 337 11,500 -1,000 Descending Potomac TRACON
Wed 01:24:43 PM 39.2167 -76.6167 210° Southwest 286 329 10,000 -750 Descending Potomac TRACON
Wed 01:25:43 PM 39.1667 -76.6833 226° Southwest 282 325 10,000  Level Potomac TRACON
Wed 01:26:37 PM 39.1333 -76.7667 243° Southwest 275 316 10,000 -789 Level Potomac TRACON
Wed 01:27:37 PM 39.1000 -76.8333 237° Southwest 250 288 8,500 -1,000 Descending Potomac TRACON
Wed 01:28:37 PM 39.0667 -76.9000 237° Southwest 211 243 8,000 -694 Descending Potomac TRACON
Wed 01:29:38 PM 39.0333 -76.9500 229° Southwest 184 212 7,100 -942 Descending Potomac TRACON
Wed 01:30:38 PM 39.0000 -77.0000 229° Southwest 183 211 6,100 -737 Descending Potomac TRACON
Wed 01:31:32 PM 39.0333 -77.0500 311° West 219 252 5,700 -579 Descending Potomac TRACON
Wed 01:32:32 PM 39.0833 -77.1000 322° Northwest 216 249 5,000 -397 Descending Potomac TRACON
Wed 01:33:33 PM 39.1000 -77.1500 293° West 191 220 4,900 -522 Descending Potomac TRACON
Wed 01:34:27 PM 39.0667 -77.2000 229° Southwest 170 196 4,000 -991 Descending Potomac TRACON
Wed 01:35:28 PM 39.0333 -77.2333 218° Southwest 182 209 3,000 -496 Descending Potomac TRACON
Wed 01:36:28 PM 39.0000 -77.2000 142° Southeast 174 200 3,000  Level Potomac TRACON
Wed 01:37:28 PM 38.9667 -77.1500 131° Southeast 173 199 3,000 -350 Level Potomac TRACON
Wed 01:38:28 PM 38.9333 -77.1167 142° Southeast 169 194 2,300 -700 Descending Potomac TRACON

Login

Don't have an account? Register now (free) for customized features, flight alerts, and more!